createdAt,value
2017-10-09T00:03:49.909Z,5
2017-10-09T00:13:49.833Z,5
2017-10-09T00:23:49.862Z,5
2017-10-09T00:33:50.605Z,4
2017-10-09T00:43:51.554Z,4
2017-10-09T00:53:49.963Z,4
2017-10-09T01:03:49.884Z,5
2017-10-09T01:13:49.902Z,6
2017-10-09T01:23:49.933Z,6
2017-10-09T01:33:49.886Z,5
2017-10-09T01:43:49.930Z,5
2017-10-09T01:53:49.935Z,5
2017-10-09T02:03:50.036Z,5
2017-10-09T02:13:49.972Z,6
2017-10-09T02:23:49.975Z,5
2017-10-09T02:33:49.967Z,6
2017-10-09T02:43:49.950Z,5
2017-10-09T02:53:50.080Z,5
2017-10-09T03:03:50.122Z,6
2017-10-09T03:13:50.008Z,5
2017-10-09T03:23:50.143Z,5
2017-10-09T03:33:50.066Z,5
2017-10-09T03:43:50.021Z,5
2017-10-09T03:53:50.110Z,6
2017-10-09T04:03:50.055Z,6
2017-10-09T04:13:50.659Z,7
2017-10-09T04:23:50.115Z,6
2017-10-09T04:33:50.062Z,8
2017-10-09T04:43:50.072Z,7
2017-10-09T04:53:50.180Z,7
2017-10-09T05:03:50.053Z,8
2017-10-09T05:13:50.220Z,8
2017-10-09T05:23:50.109Z,7
2017-10-09T05:33:50.659Z,7
2017-10-09T05:43:51.025Z,8
2017-10-09T05:53:50.251Z,8
2017-10-09T06:03:50.295Z,7
2017-10-09T06:13:50.401Z,8
2017-10-09T06:23:50.238Z,7
2017-10-09T06:33:50.289Z,8
2017-10-09T06:43:50.493Z,7
2017-10-09T06:53:51.108Z,6
2017-10-09T07:03:50.408Z,7
2017-10-09T07:13:50.262Z,7
2017-10-09T07:23:50.335Z,5
2017-10-09T07:33:50.330Z,5
2017-10-09T07:43:50.246Z,5
2017-10-09T07:53:50.221Z,6
2017-10-09T08:03:50.300Z,6
2017-10-09T08:13:50.243Z,5
2017-10-09T08:23:50.313Z,4
2017-10-09T08:33:50.253Z,5
2017-10-09T08:43:51.272Z,5
2017-10-09T08:53:50.885Z,5
2017-10-09T09:03:50.363Z,6
2017-10-09T09:13:50.357Z,5
2017-10-09T09:23:50.315Z,6
2017-10-09T09:33:50.350Z,5
2017-10-09T09:43:50.400Z,6
2017-10-09T09:53:50.395Z,6
2017-10-09T10:03:50.918Z,6
2017-10-09T10:13:50.444Z,6
2017-10-09T10:23:50.419Z,7
2017-10-09T10:33:50.393Z,6
2017-10-09T10:43:50.415Z,7
2017-10-09T10:53:50.396Z,7
2017-10-09T11:03:50.413Z,7
2017-10-09T11:13:50.449Z,4
2017-10-09T11:23:50.501Z,6
2017-10-09T11:33:50.521Z,8
2017-10-09T11:43:50.441Z,16
2017-10-09T11:53:50.467Z,16
2017-10-09T12:03:51.258Z,15
2017-10-09T12:13:50.553Z,15
2017-10-09T12:23:50.725Z,16
2017-10-09T12:33:50.705Z,18
2017-10-09T12:43:50.669Z,13
2017-10-09T12:53:50.729Z,15
2017-10-09T13:03:50.620Z,37
2017-10-09T13:13:51.225Z,45
2017-10-09T13:23:50.534Z,16
2017-10-09T13:33:51.496Z,16
2017-10-09T13:43:50.711Z,17
2017-10-09T13:53:50.652Z,18
2017-10-09T14:03:50.652Z,16
2017-10-09T14:13:50.655Z,17
2017-10-09T14:23:50.781Z,16
2017-10-09T14:43:50.697Z,14
2017-10-09T14:53:50.796Z,15
2017-10-09T15:03:50.791Z,15
2017-10-09T15:13:51.216Z,16
2017-10-09T15:23:50.755Z,17
2017-10-09T15:33:52.437Z,18
2017-10-09T15:43:51.324Z,19
2017-10-09T15:53:50.792Z,21
2017-10-09T16:03:50.802Z,21
2017-10-09T16:13:50.754Z,24
2017-10-09T16:23:50.771Z,24
2017-10-09T16:33:51.365Z,26
2017-10-09T16:43:50.870Z,25
2017-10-09T16:53:50.809Z,25
2017-10-09T17:03:50.886Z,24
2017-10-09T17:13:50.827Z,26
2017-10-09T17:23:50.877Z,25
2017-10-09T17:33:50.944Z,27
2017-10-09T17:43:52.182Z,29
2017-10-09T17:53:50.824Z,28
2017-10-09T18:03:50.875Z,27
2017-10-09T18:13:51.891Z,28
2017-10-09T18:23:50.895Z,26
2017-10-09T18:33:50.938Z,23
2017-10-09T18:43:51.719Z,22
2017-10-09T18:53:50.907Z,21
2017-10-09T19:03:51.081Z,21
2017-10-09T19:13:51.144Z,21
2017-10-09T19:23:51.999Z,21
2017-10-09T19:33:54.061Z,19
2017-10-09T19:43:54.419Z,20
2017-10-09T19:53:52.160Z,21
2017-10-09T20:03:52.188Z,20
2017-10-09T20:13:52.766Z,20
2017-10-09T20:23:52.166Z,19
2017-10-09T20:33:53.278Z,18
2017-10-09T20:43:52.450Z,27
2017-10-09T20:53:52.179Z,16
2017-10-09T21:03:52.301Z,13
2017-10-09T21:13:52.286Z,11
2017-10-09T21:23:58.729Z,9
2017-10-09T21:33:52.565Z,9
2017-10-09T21:43:54.256Z,14
2017-10-09T21:53:54.297Z,18
2017-10-09T22:03:56.755Z,19
2017-10-09T22:13:52.209Z,20
2017-10-09T22:24:01.758Z,22
2017-10-09T22:33:52.238Z,22
2017-10-09T22:43:58.803Z,25
2017-10-09T22:53:53.402Z,29
2017-10-09T23:03:52.368Z,26
2017-10-09T23:13:54.041Z,28
2017-10-09T23:23:53.360Z,28
2017-10-09T23:33:52.362Z,28
2017-10-09T23:43:53.360Z,28
2017-10-09T23:53:54.411Z,29
